Time;durP1;ratioP1;P1;durP2;ratioP2;P2;SDS_P1;SDS_P2;PMS_P1;PMS_P2;Temp;Humidity;BMP_temperature;BMP_pressure;BME280_temperature;BME280_humidity;BME280_pressure;Samples;Min_cycle;Max_cycle;Signal;HPM_P1;HPM_P2
2023/10/12 00:01:58;;;;;;;95.43;66.38;;;;;;;;;;5061086;28;20016;-84
2023/10/12 00:04:24;;;;;;;;;;;;;;;;;;5075803;28;20119;-83
2023/10/12 00:06:51;;;;;;;101.00;69.18;;;;;;;;;;5058451;28;19909;-83
2023/10/12 00:09:20;;;;;;;98.88;71.00;;;;;;;;;;5075599;28;20033;-83
2023/10/12 00:11:57;;;;;;;96.93;64.10;;;;;;;;;;5074415;28;20074;-83
2023/10/12 00:14:28;;;;;;;99.00;65.25;;;;;;;;;;5075100;28;20024;-84
2023/10/12 00:16:55;;;;;;;93.18;64.60;;;;;;;;;;5041186;28;20503;-84
2023/10/12 00:19:23;;;;;;;94.25;66.68;;;;;;;;;;5072812;28;20021;-84
2023/10/12 00:21:50;;;;;;;105.93;63.72;;;;;;;;;;5057028;28;20380;-84
2023/10/12 00:24:18;;;;;;;97.85;65.00;;;;;;;;;;5038545;28;20491;-84
2023/10/12 00:26:44;;;;;;;92.88;64.35;;;;;;;;;;5055932;28;20170;-83
2023/10/12 00:29:12;;;;;;;104.47;68.43;;;;;;;;;;5058309;28;20135;-84
2023/10/12 00:31:41;;;;;;;100.78;70.65;;;;;;;;;;5055577;28;20040;-84
2023/10/12 00:34:08;;;;;;;102.82;67.85;;;;;;;;;;5056094;28;20388;-84
2023/10/12 00:36:41;;;;;;;101.20;69.55;;;;;;;;;;5038523;28;20029;-84
2023/10/12 00:39:11;;;;;;;99.10;70.32;;;;;;;;;;5054792;28;20025;-83
2023/10/12 00:41:37;;;;;;;102.22;70.53;;;;;;;;;;5055487;28;20102;-84
2023/10/12 00:51:52;;;;;;;100.18;68.22;;;;;;;;;;5057612;28;20076;-84
2023/10/12 00:54:32;;;;;;;102.05;68.57;;;;;;;;;;5037842;28;20033;-84
2023/10/12 00:57:02;;;;;;;97.38;67.18;;;;;;;;;;5056394;28;20044;-84
2023/10/12 00:59:38;;;;;;;104.07;68.88;;;;;;;;;;5054449;28;20040;-84
2023/10/12 01:02:08;;;;;;;104.70;72.32;;;;;;;;;;5034259;28;20419;-84
2023/10/12 01:04:36;;;;;;;99.43;68.00;;;;;;;;;;5034208;28;20045;-83
2023/10/12 01:07:06;;;;;;;108.72;71.50;;;;;;;;;;5046015;28;20043;-84
2023/10/12 01:09:39;;;;;;;102.40;68.57;;;;;;;;;;5056985;28;20124;-83
2023/10/12 01:12:12;;;;;;;105.15;71.22;;;;;;;;;;5068860;28;20037;-84
2023/10/12 01:14:43;;;;;;;99.22;68.63;;;;;;;;;;5057711;28;20039;-83
2023/10/12 01:17:16;;;;;;;105.32;67.68;;;;;;;;;;5062062;28;20391;-83
2023/10/12 01:19:45;;;;;;;101.05;68.13;;;;;;;;;;5076153;28;20039;-83
2023/10/12 01:22:12;;;;;;;96.53;67.97;;;;;;;;;;5072507;28;20021;-84
2023/10/12 01:24:44;;;;;;;105.32;67.95;;;;;;;;;;5060743;28;20410;-83
2023/10/12 01:27:14;;;;;;;104.38;69.20;;;;;;;;;;5058695;28;20056;-84
2023/10/12 01:29:41;;;;;;;103.70;68.53;;;;;;;;;;5062966;28;20020;-84
2023/10/12 01:34:36;;;;;;;101.63;63.60;;;;;;;;;;5070050;28;20326;-84
2023/10/12 01:37:11;;;;;;;95.68;63.95;;;;;;;;;;5058762;28;20029;-83
2023/10/12 01:39:51;;;;;;;100.43;65.65;;;;;;;;;;5058050;28;20025;-83
2023/10/12 01:42:20;;;;;;;94.22;66.38;;;;;;;;;;5081027;28;20028;-83
2023/10/12 01:44:47;;;;;;;104.00;67.45;;;;;;;;;;5073650;28;20033;-83
2023/10/12 01:47:15;;;;;;;119.00;67.83;;;;;;;;;;5048124;28;20117;-83
2023/10/12 01:49:45;;;;;;;91.43;66.05;;;;;;;;;;5039009;28;20499;-83
2023/10/12 01:52:11;;;;;;;102.80;69.50;;;;;;;;;;5055824;28;20021;-83
2023/10/12 01:54:43;;;;;;;105.47;70.87;;;;;;;;;;5058240;28;20025;-83
2023/10/12 01:57:10;;;;;;;102.63;70.43;;;;;;;;;;5057951;28;20036;-83
2023/10/12 01:59:36;;;;;;;109.38;76.05;;;;;;;;;;5058878;28;20048;-83
2023/10/12 02:02:13;;;;;;;106.67;71.63;;;;;;;;;;5040774;28;20063;-83
2023/10/12 02:04:40;;;;;;;107.22;69.45;;;;;;;;;;5036197;28;20068;-84
2023/10/12 02:07:10;;;;;;;113.80;72.20;;;;;;;;;;5037250;28;20609;-83
2023/10/12 02:09:36;;;;;;;116.35;72.38;;;;;;;;;;5043995;28;20404;-83
2023/10/12 02:12:10;;;;;;;108.22;74.43;;;;;;;;;;5070177;28;20055;-83
2023/10/12 02:14:41;;;;;;;114.53;74.20;;;;;;;;;;5063623;28;20562;-83
2023/10/12 02:17:08;;;;;;;110.45;70.00;;;;;;;;;;5044227;28;20030;-83
2023/10/12 02:19:41;;;;;;;105.43;72.82;;;;;;;;;;5022341;28;20450;-83
2023/10/12 02:22:18;;;;;;;109.40;74.10;;;;;;;;;;5057024;28;20029;-83
2023/10/12 02:24:50;;;;;;;103.13;68.78;;;;;;;;;;5063045;28;20036;-83
2023/10/12 02:27:17;;;;;;;113.30;73.25;;;;;;;;;;5076187;28;20410;-83
2023/10/12 02:29:48;;;;;;;100.88;67.53;;;;;;;;;;5076667;28;20376;-83
2023/10/12 02:32:20;;;;;;;94.93;69.20;;;;;;;;;;5057417;28;20029;-83
2023/10/12 02:34:46;;;;;;;100.97;66.00;;;;;;;;;;5076289;28;20025;-84
2023/10/12 02:39:41;;;;;;;85.07;59.23;;;;;;;;;;5059034;28;20286;-83
2023/10/12 02:42:17;;;;;;;89.40;61.30;;;;;;;;;;5056717;28;20087;-84
2023/10/12 02:47:18;;;;;;;110.05;69.53;;;;;;;;;;5072217;28;20029;-83
2023/10/12 02:49:46;;;;;;;95.60;66.32;;;;;;;;;;5077783;28;20460;-83
2023/10/12 02:52:16;;;;;;;102.78;71.50;;;;;;;;;;5061006;28;20025;-83
2023/10/12 02:54:54;;;;;;;101.10;69.80;;;;;;;;;;5064082;28;20032;-83
2023/10/12 02:57:25;;;;;;;104.22;74.10;;;;;;;;;;5040608;28;20442;-83
2023/10/12 03:00:18;;;;;;;97.20;66.47;;;;;;;;;;5079256;28;20421;-83
2023/10/12 03:02:46;;;;;;;100.30;67.40;;;;;;;;;;5048872;28;20024;-83
2023/10/12 03:05:17;;;;;;;93.57;65.72;;;;;;;;;;5052398;28;20051;-84
2023/10/12 03:07:44;;;;;;;98.80;65.50;;;;;;;;;;5043404;28;20028;-83
2023/10/12 03:10:29;;;;;;;96.75;61.10;;;;;;;;;;5057339;28;20039;-84
2023/10/12 03:13:04;;;;;;;93.43;64.32;;;;;;;;;;5073882;28;20033;-84
2023/10/12 03:15:48;;;;;;;88.40;61.47;;;;;;;;;;5057944;28;20487;-83
2023/10/12 03:18:15;;;;;;;88.03;61.90;;;;;;;;;;5034450;28;20079;-84
2023/10/12 03:21:01;;;;;;;93.65;64.90;;;;;;;;;;5037619;28;20018;-84
2023/10/12 03:23:29;;;;;;;107.97;71.78;;;;;;;;;;5032455;28;20030;-84
2023/10/12 03:25:55;;;;;;;100.75;69.55;;;;;;;;;;5032984;28;20037;-84
2023/10/12 03:28:30;;;;;;;102.07;70.77;;;;;;;;;;5033599;28;20519;-84
2023/10/12 03:31:15;;;;;;;102.03;71.32;;;;;;;;;;5059193;28;20115;-84
2023/10/12 03:33:46;;;;;;;104.57;70.68;;;;;;;;;;5068447;28;20488;-84
2023/10/12 03:36:25;;;;;;;103.05;71.13;;;;;;;;;;5059988;28;20066;-84
2023/10/12 03:39:27;;;;;;;108.40;72.30;;;;;;;;;;5069580;28;20025;-84
2023/10/12 03:44:19;;;;;;;105.20;72.53;;;;;;;;;;5055700;28;20125;-83
2023/10/12 03:46:56;;;;;;;101.13;68.60;;;;;;;;;;5051566;28;20025;-82
2023/10/12 03:49:32;;;;;;;88.80;61.65;;;;;;;;;;5074733;28;20056;-82
2023/10/12 03:52:14;;;;;;;96.97;67.38;;;;;;;;;;5066611;28;20039;-82
2023/10/12 03:54:55;;;;;;;99.60;67.63;;;;;;;;;;5075124;28;20032;-82
2023/10/12 03:57:28;;;;;;;110.68;74.07;;;;;;;;;;5076234;28;20410;-82
2023/10/12 04:00:48;;;;;;;106.70;74.35;;;;;;;;;;5076576;28;20060;-81
2023/10/12 04:08:49;;;;;;;123.18;82.70;;;;;;;;;;5057714;28;20484;-81
2023/10/12 04:18:35;;;;;;;132.63;83.05;;;;;;;;;;5055819;28;20029;-81
2023/10/12 04:21:03;;;;;;;124.93;79.78;;;;;;;;;;5056317;28;20100;-81
2023/10/12 04:23:48;;;;;;;139.75;86.25;;;;;;;;;;5056732;28;20460;-81
2023/10/12 04:28:52;;;;;;;121.53;82.43;;;;;;;;;;5056516;28;20082;-81
2023/10/12 04:41:38;;;;;;;132.93;85.87;;;;;;;;;;5056164;28;20064;-82
2023/10/12 04:44:35;;;;;;;131.30;87.60;;;;;;;;;;5054400;28;20029;-82
2023/10/12 04:47:07;;;;;;;131.95;86.88;;;;;;;;;;5054005;28;20041;-82
2023/10/12 04:54:49;;;;;;;131.07;83.90;;;;;;;;;;5054156;28;20511;-82
2023/10/12 04:57:16;;;;;;;126.18;83.25;;;;;;;;;;5055508;28;20036;-82
2023/10/12 05:02:28;;;;;;;135.45;85.10;;;;;;;;;;5054844;28;20064;-82
2023/10/12 05:05:37;;;;;;;124.13;82.65;;;;;;;;;;5054206;28;20041;-82
2023/10/12 05:08:02;;;;;;;117.07;84.10;;;;;;;;;;5055653;28;20087;-81
2023/10/12 05:10:41;;;;;;;118.45;81.43;;;;;;;;;;5058474;28;20021;-82
2023/10/12 05:13:10;;;;;;;121.20;81.90;;;;;;;;;;5058488;28;20056;-82
2023/10/12 05:15:41;;;;;;;125.82;82.22;;;;;;;;;;5060368;28;20056;-82
2023/10/12 05:18:17;;;;;;;121.57;79.72;;;;;;;;;;5059569;28;20036;-82
2023/10/12 05:20:44;;;;;;;136.98;84.95;;;;;;;;;;5060383;28;20079;-82
2023/10/12 05:23:13;;;;;;;127.72;81.95;;;;;;;;;;5042054;28;20112;-82
2023/10/12 05:26:25;;;;;;;135.07;84.32;;;;;;;;;;5058576;28;20482;-82
2023/10/12 05:28:27;;;;;;;124.32;86.75;;;;;;;;;;5052159;28;20045;-82
2023/10/12 05:30:59;;;;;;;;;;;;;;;;;;5042694;28;20044;-82
2023/10/12 05:36:05;;;;;;;126.55;84.45;;;;;;;;;;5060039;28;20063;-82
2023/10/12 05:38:37;;;;;;;122.32;84.35;;;;;;;;;;5059786;28;20032;-81
2023/10/12 05:41:12;;;;;;;127.85;87.10;;;;;;;;;;5061776;28;20029;-81
2023/10/12 05:43:40;;;;;;;120.63;82.25;;;;;;;;;;5060278;28;20044;-81
2023/10/12 05:46:13;;;;;;;119.38;81.18;;;;;;;;;;5060063;28;20399;-82
2023/10/12 05:48:46;;;;;;;128.70;85.15;;;;;;;;;;5062974;28;20037;-82
2023/10/12 05:51:18;;;;;;;120.40;81.63;;;;;;;;;;5057583;28;20510;-82
2023/10/12 05:53:45;;;;;;;126.57;80.65;;;;;;;;;;5040526;28;20033;-81
2023/10/12 05:56:12;;;;;;;122.85;82.43;;;;;;;;;;5057717;28;20032;-82
2023/10/12 05:58:38;;;;;;;120.70;82.25;;;;;;;;;;5057320;28;20488;-81
2023/10/12 06:01:08;;;;;;;125.50;81.80;;;;;;;;;;5058220;28;20056;-82
2023/10/12 06:03:36;;;;;;;122.53;82.88;;;;;;;;;;5056144;28;20028;-83
2023/10/12 06:06:02;;;;;;;119.25;80.45;;;;;;;;;;5058413;28;20036;-82
2023/10/12 06:08:30;;;;;;;122.03;82.03;;;;;;;;;;5059686;28;20033;-82
2023/10/12 06:10:58;;;;;;;125.88;80.88;;;;;;;;;;5058898;28;20346;-82
2023/10/12 06:13:32;;;;;;;121.00;82.20;;;;;;;;;;5058794;28;20043;-82
2023/10/12 06:15:59;;;;;;;118.60;78.65;;;;;;;;;;5062018;28;20044;-82
2023/10/12 06:18:30;;;;;;;117.15;80.68;;;;;;;;;;5072418;28;20380;-81
2023/10/12 06:21:06;;;;;;;122.35;76.72;;;;;;;;;;5034539;28;20033;-81
2023/10/12 06:23:39;;;;;;;125.80;79.88;;;;;;;;;;5039715;28;20029;-81
2023/10/12 06:26:16;;;;;;;111.85;76.53;;;;;;;;;;5039795;28;20029;-81
2023/10/12 06:28:42;;;;;;;118.75;77.85;;;;;;;;;;5040213;28;20029;-82
2023/10/12 06:31:09;;;;;;;120.78;78.25;;;;;;;;;;5038132;28;20025;-87
2023/10/12 06:33:40;;;;;;;118.20;77.88;;;;;;;;;;5016758;28;20479;-87
2023/10/12 06:36:16;;;;;;;119.43;78.25;;;;;;;;;;5038602;28;20121;-82
2023/10/12 06:39:02;;;;;;;116.47;74.03;;;;;;;;;;5037818;28;20079;-84
2023/10/12 06:44:13;;;;;;;110.20;75.13;;;;;;;;;;5040933;28;20041;-82
2023/10/12 06:46:46;;;;;;;102.28;69.75;;;;;;;;;;5041438;28;20575;-82
2023/10/12 06:49:18;;;;;;;107.85;70.20;;;;;;;;;;5040661;28;20136;-82
2023/10/12 06:51:53;;;;;;;97.75;70.10;;;;;;;;;;5040579;28;20473;-82
2023/10/12 06:54:39;;;;;;;104.68;70.22;;;;;;;;;;5038158;28;20620;-83
2023/10/12 06:59:52;;;;;;;;;;;;;;;;;;5033753;28;20040;-86
2023/10/12 07:02:24;;;;;;;110.60;67.43;;;;;;;;;;5032741;28;20027;-86
2023/10/12 07:04:53;;;;;;;102.35;67.82;;;;;;;;;;5016909;28;20498;-88
2023/10/12 07:07:41;;;;;;;102.53;74.43;;;;;;;;;;5015224;28;20791;-86
2023/10/12 07:12:41;;;;;;;100.07;65.80;;;;;;;;;;5032769;28;19928;-85
2023/10/12 07:15:11;;;;;;;;;;;;;;;;;;5042343;28;20029;-85
2023/10/12 07:17:37;;;;;;;94.88;61.70;;;;;;;;;;5052934;28;19908;-86
2023/10/12 07:20:25;;;;;;;87.60;62.50;;;;;;;;;;5053666;28;20029;-86
2023/10/12 07:22:51;;;;;;;97.55;63.45;;;;;;;;;;5053643;28;20033;-85
2023/10/12 07:25:23;;;;;;;91.45;60.47;;;;;;;;;;5052751;28;20029;-87
2023/10/12 07:27:51;;;;;;;98.93;66.68;;;;;;;;;;5052902;28;20044;-89
2023/10/12 07:32:56;;;;;;;88.15;60.55;;;;;;;;;;5052865;28;20029;-87
2023/10/12 07:35:31;;;;;;;81.53;56.80;;;;;;;;;;5051257;28;20029;-86
2023/10/12 07:38:02;;;;;;;83.20;58.42;;;;;;;;;;5051998;28;20083;-87
2023/10/12 07:40:35;;;;;;;80.10;57.58;;;;;;;;;;5053919;28;20049;-85
2023/10/12 07:43:07;;;;;;;76.65;55.72;;;;;;;;;;5035954;28;20406;-85
2023/10/12 07:45:38;;;;;;;72.20;50.45;;;;;;;;;;5053016;28;20510;-84
2023/10/12 07:48:09;;;;;;;70.82;49.22;;;;;;;;;;5053373;28;20498;-84
2023/10/12 07:50:37;;;;;;;63.03;46.63;;;;;;;;;;5052108;28;20047;-83
2023/10/12 07:53:14;;;;;;;61.90;46.00;;;;;;;;;;5053545;28;20100;-83
2023/10/12 07:55:44;;;;;;;70.18;44.80;;;;;;;;;;5036127;28;20048;-84
2023/10/12 07:58:18;;;;;;;57.83;41.35;;;;;;;;;;5053251;28;20060;-86
2023/10/12 08:00:51;;;;;;;60.30;43.15;;;;;;;;;;5051516;28;20032;-84
2023/10/12 08:03:18;;;;;;;61.10;42.80;;;;;;;;;;5051384;28;20053;-85
2023/10/12 08:05:56;;;;;;;59.30;41.75;;;;;;;;;;5034958;28;20427;-86
2023/10/12 08:08:35;;;;;;;;;;;;;;;;;;5051871;28;20056;-86
2023/10/12 08:11:28;;;;;;;60.28;41.67;;;;;;;;;;5051293;28;19908;-86
2023/10/12 08:13:48;;;;;;;59.28;42.40;;;;;;;;;;5052678;28;20507;-89
2023/10/12 08:16:15;;;;;;;74.10;41.93;;;;;;;;;;5034729;28;20025;-86
2023/10/12 08:19:43;;;;;;;51.72;38.72;;;;;;;;;;5050969;28;20286;-85
2023/10/12 08:21:43;;;;;;;57.13;38.90;;;;;;;;;;5037936;28;20119;-88
2023/10/12 08:24:09;;;;;;;55.47;40.22;;;;;;;;;;5034247;28;20028;-85
2023/10/12 08:32:04;;;;;;;54.38;35.97;;;;;;;;;;5051754;28;20037;-87
2023/10/12 08:40:27;;;;;;;45.95;32.60;;;;;;;;;;5050738;28;20037;-87
2023/10/12 08:45:00;;;;;;;40.93;33.20;;;;;;;;;;5051126;28;20033;-87
2023/10/12 08:52:51;;;;;;;41.88;30.98;;;;;;;;;;5050312;28;20083;-86
2023/10/12 08:55:24;;;;;;;36.58;27.50;;;;;;;;;;5050038;28;20025;-87
2023/10/12 08:57:56;;;;;;;44.88;31.38;;;;;;;;;;5033690;28;20025;-87
2023/10/12 09:03:00;;;;;;;41.25;28.13;;;;;;;;;;5050111;28;20063;-87
2023/10/12 09:05:30;;;;;;;45.95;26.33;;;;;;;;;;5050481;28;20056;-87
2023/10/12 09:13:35;;;;;;;26.27;20.73;;;;;;;;;;5051087;28;20043;-87
2023/10/12 09:16:03;;;;;;;33.35;23.42;;;;;;;;;;5033757;28;20083;-86
2023/10/12 09:18:34;;;;;;;29.63;23.58;;;;;;;;;;5050743;28;20059;-86
2023/10/12 09:31:15;;;;;;;29.85;21.73;;;;;;;;;;5050027;28;20044;-86
2023/10/12 09:33:53;;;;;;;32.78;22.92;;;;;;;;;;5050977;28;20029;-86
2023/10/12 09:36:19;;;;;;;38.63;22.90;;;;;;;;;;5049874;28;20048;-86
2023/10/12 09:38:46;;;;;;;36.45;23.35;;;;;;;;;;5051518;28;20021;-87
2023/10/12 09:41:17;;;;;;;34.20;23.85;;;;;;;;;;5051431;28;20075;-87
2023/10/12 09:43:44;;;;;;;36.47;23.02;;;;;;;;;;5049716;28;20043;-87
2023/10/12 09:46:14;;;;;;;31.90;22.80;;;;;;;;;;5033289;28;20115;-86
2023/10/12 09:48:44;;;;;;;36.28;23.38;;;;;;;;;;5049779;28;20029;-87
2023/10/12 09:51:17;;;;;;;36.83;24.17;;;;;;;;;;5051444;28;20044;-87
2023/10/12 09:53:57;;;;;;;39.35;26.77;;;;;;;;;;5050664;28;20025;-87
2023/10/12 09:56:28;;;;;;;31.00;22.70;;;;;;;;;;5051500;28;20029;-87
2023/10/12 09:59:07;;;;;;;29.30;23.08;;;;;;;;;;5053712;28;20037;-86
2023/10/12 10:07:08;;;;;;;42.08;25.05;;;;;;;;;;5053418;28;20032;-87
2023/10/12 10:12:04;;;;;;;39.00;25.80;;;;;;;;;;5054490;28;20025;-87
2023/10/12 10:14:35;;;;;;;29.90;23.10;;;;;;;;;;5061231;28;20074;-87
2023/10/12 10:17:01;;;;;;;38.72;24.75;;;;;;;;;;5056255;28;20391;-87
2023/10/12 10:19:39;;;;;;;32.10;23.95;;;;;;;;;;5055716;28;20025;-88
2023/10/12 10:22:06;;;;;;;51.47;25.65;;;;;;;;;;5055459;28;20712;-86
2023/10/12 10:24:46;;;;;;;34.25;24.30;;;;;;;;;;5053584;28;20029;-86
2023/10/12 10:27:15;;;;;;;35.25;23.13;;;;;;;;;;5052173;28;20086;-86
2023/10/12 10:29:53;;;;;;;32.80;22.23;;;;;;;;;;5036803;28;20550;-86
2023/10/12 10:32:39;;;;;;;32.95;24.20;;;;;;;;;;5053317;28;20108;-85
2023/10/12 10:35:13;;;;;;;37.38;24.42;;;;;;;;;;5022912;28;20037;-86
2023/10/12 10:37:47;;;;;;;37.45;23.00;;;;;;;;;;5039106;28;20042;-85
2023/10/12 10:40:17;;;;;;;27.05;23.42;;;;;;;;;;5047990;28;20116;-86
2023/10/12 10:42:51;;;;;;;25.55;18.63;;;;;;;;;;5073571;28;20028;-86
2023/10/12 10:45:19;;;;;;;22.42;17.27;;;;;;;;;;5063960;28;20029;-86
2023/10/12 10:47:49;;;;;;;25.30;17.20;;;;;;;;;;5036118;28;20112;-90
2023/10/12 10:50:15;;;;;;;23.92;19.52;;;;;;;;;;5062906;28;20027;-86
2023/10/12 10:52:44;;;;;;;25.58;17.95;;;;;;;;;;5057965;28;20025;-85
2023/10/12 10:55:11;;;;;;;26.55;18.88;;;;;;;;;;5052527;28;20593;-89
2023/10/12 10:57:40;;;;;;;;;;;;;;;;;;5048717;28;20025;-86
2023/10/12 11:00:17;;;;;;;31.10;17.95;;;;;;;;;;5066730;28;19915;-86
2023/10/12 11:02:47;;;;;;;20.10;16.45;;;;;;;;;;5033041;28;20026;-85
2023/10/12 11:05:19;;;;;;;28.83;17.80;;;;;;;;;;5031529;28;20033;-86
2023/10/12 11:07:50;;;;;;;27.27;17.17;;;;;;;;;;5053432;28;20508;-86
2023/10/12 11:10:19;;;;;;;23.38;17.10;;;;;;;;;;5037859;28;20422;-87
2023/10/12 11:12:48;;;;;;;27.17;17.48;;;;;;;;;;5052231;28;20029;-87
2023/10/12 11:15:19;;;;;;;28.38;16.58;;;;;;;;;;5050128;28;20028;-88
2023/10/12 11:18:00;;;;;;;34.35;17.85;;;;;;;;;;5055848;28;20498;-88
2023/10/12 11:20:49;;;;;;;26.65;17.88;;;;;;;;;;5055714;28;20564;-87
2023/10/12 11:23:17;;;;;;;26.63;18.50;;;;;;;;;;5053932;28;20063;-87
2023/10/12 11:25:43;;;;;;;31.10;18.75;;;;;;;;;;5053825;28;20475;-88
2023/10/12 11:28:19;;;;;;;27.33;18.33;;;;;;;;;;5053829;28;20028;-86
2023/10/12 11:30:45;;;;;;;27.30;17.50;;;;;;;;;;5071218;28;20021;-85
2023/10/12 11:33:11;;;;;;;25.08;18.58;;;;;;;;;;5071965;28;20044;-83
2023/10/12 11:35:40;;;;;;;24.83;16.38;;;;;;;;;;5051854;28;20029;-88
2023/10/12 11:38:17;;;;;;;30.23;18.25;;;;;;;;;;5053180;28;20116;-83
2023/10/12 11:40:44;;;;;;;21.95;16.90;;;;;;;;;;5051901;28;20373;-84
2023/10/12 11:43:11;;;;;;;25.98;16.70;;;;;;;;;;5035128;28;20040;-83
2023/10/12 11:45:53;;;;;;;26.50;17.05;;;;;;;;;;5057199;28;20025;-84
2023/10/12 11:48:21;;;;;;;29.63;16.73;;;;;;;;;;5054900;28;20033;-83
2023/10/12 11:50:48;;;;;;;26.17;16.77;;;;;;;;;;5072783;28;20475;-84
2023/10/12 11:53:15;;;;;;;34.33;16.92;;;;;;;;;;5054470;28;20024;-84
2023/10/12 11:55:42;;;;;;;25.23;16.90;;;;;;;;;;5054822;28;20025;-84
2023/10/12 11:58:08;;;;;;;27.65;18.20;;;;;;;;;;5071363;28;20032;-84
2023/10/12 12:00:37;;;;;;;25.00;17.52;;;;;;;;;;5057217;28;20036;-84
2023/10/12 12:03:10;;;;;;;30.17;18.75;;;;;;;;;;5071071;28;20438;-84
2023/10/12 12:05:36;;;;;;;33.20;18.27;;;;;;;;;;5071194;28;20033;-85
2023/10/12 12:08:25;;;;;;;33.88;17.27;;;;;;;;;;5072418;28;20079;-85
2023/10/12 12:13:21;;;;;;;28.52;18.08;;;;;;;;;;5071885;28;20082;-84
2023/10/12 12:15:48;;;;;;;30.08;16.95;;;;;;;;;;5064707;28;20017;-85
2023/10/12 12:20:44;;;;;;;28.55;17.08;;;;;;;;;;5050395;28;20043;-85
2023/10/12 12:23:14;;;;;;;31.17;17.10;;;;;;;;;;5050675;28;20637;-84
2023/10/12 12:25:41;;;;;;;27.20;17.70;;;;;;;;;;5054946;28;20032;-84
2023/10/12 12:28:08;;;;;;;24.02;16.25;;;;;;;;;;5070993;28;20085;-84
2023/10/12 12:30:36;;;;;;;24.38;16.63;;;;;;;;;;5071978;28;20032;-85
2023/10/12 12:33:15;;;;;;;23.27;16.73;;;;;;;;;;5068390;28;20066;-85
2023/10/12 12:35:44;;;;;;;27.00;17.48;;;;;;;;;;5052150;28;20029;-85
2023/10/12 12:40:59;;;;;;;32.30;17.60;;;;;;;;;;5051974;28;20045;-85
2023/10/12 12:43:26;;;;;;;32.10;17.10;;;;;;;;;;5050388;28;20124;-84
2023/10/12 12:45:52;;;;;;;;;;;;;;;;;;5050914;28;20021;-84
2023/10/12 12:48:21;;;;;;;31.85;17.17;;;;;;;;;;5033962;28;19909;-84
2023/10/12 12:50:48;;;;;;;26.77;18.30;;;;;;;;;;5064575;28;20031;-84
2023/10/12 12:53:18;;;;;;;36.38;18.23;;;;;;;;;;5070377;28;20050;-84
2023/10/12 12:55:46;;;;;;;32.80;18.85;;;;;;;;;;5053771;28;20033;-85
2023/10/12 12:58:15;;;;;;;29.15;17.55;;;;;;;;;;5070557;28;20485;-84
2023/10/12 13:00:42;;;;;;;28.70;18.08;;;;;;;;;;5064889;28;20514;-84
2023/10/12 13:03:09;;;;;;;31.48;14.00;;;;;;;;;;5051291;28;20108;-85
2023/10/12 13:05:36;;;;;;;26.35;15.88;;;;;;;;;;5050435;28;20115;-84
2023/10/12 13:08:02;;;;;;;26.85;17.52;;;;;;;;;;5033797;28;20078;-87
2023/10/12 13:10:29;;;;;;;29.92;16.42;;;;;;;;;;5059321;28;20070;-86
2023/10/12 13:12:56;;;;;;;34.70;16.45;;;;;;;;;;5070784;28;20035;-85
2023/10/12 13:15:23;;;;;;;47.15;17.95;;;;;;;;;;5067165;28;20120;-85
2023/10/12 13:17:49;;;;;;;30.23;15.95;;;;;;;;;;5033763;28;20025;-85
2023/10/12 13:20:21;;;;;;;35.85;23.17;;;;;;;;;;5033626;28;20493;-87
2023/10/12 13:22:51;;;;;;;26.10;16.73;;;;;;;;;;5049919;28;20056;-87
2023/10/12 13:25:20;;;;;;;24.13;17.63;;;;;;;;;;5032588;28;20165;-88
2023/10/12 13:27:51;;;;;;;32.90;17.65;;;;;;;;;;5050227;28;20033;-87
2023/10/12 13:30:17;;;;;;;30.88;16.35;;;;;;;;;;5053941;28;20043;-86
2023/10/12 13:32:44;;;;;;;;;;;;;;;;;;5052617;28;20510;-86
2023/10/12 13:35:31;;;;;;;21.55;17.23;;;;;;;;;;5038385;28;20376;-85
2023/10/12 13:37:57;;;;;;;;;;;;;;;;;;5051213;28;20052;-86
2023/10/12 13:40:25;;;;;;;26.63;16.48;;;;;;;;;;5035883;28;20375;-87
2023/10/12 13:42:51;;;;;;;25.73;16.92;;;;;;;;;;5035415;28;20549;-87
2023/10/12 13:45:21;;;;;;;29.50;17.63;;;;;;;;;;5033549;28;20080;-86
2023/10/12 13:47:47;;;;;;;35.38;19.23;;;;;;;;;;5072985;28;20059;-85
2023/10/12 13:50:13;;;;;;;33.22;17.98;;;;;;;;;;5070967;28;20024;-85
2023/10/12 13:53:00;;;;;;;;;;;;;;;;;;5053786;28;20477;-88
2023/10/12 13:55:29;;;;;;;30.55;18.50;;;;;;;;;;5058864;28;19997;-85
2023/10/12 13:57:57;;;;;;;30.23;19.17;;;;;;;;;;5073921;28;20028;-86
2023/10/12 14:00:27;;;;;;;30.00;19.85;;;;;;;;;;5055680;28;20061;-85
2023/10/12 14:02:57;;;;;;;34.03;21.05;;;;;;;;;;5055986;28;20078;-85
2023/10/12 14:05:30;;;;;;;35.15;20.98;;;;;;;;;;5054416;28;20029;-85
2023/10/12 14:07:59;;;;;;;27.67;18.55;;;;;;;;;;5070063;28;20032;-85
2023/10/12 14:10:29;;;;;;;29.17;20.13;;;;;;;;;;5059864;28;20055;-84
2023/10/12 14:12:56;;;;;;;38.33;22.13;;;;;;;;;;5033247;28;20499;-85
2023/10/12 14:15:24;;;;;;;29.10;19.88;;;;;;;;;;5034735;28;20404;-86
2023/10/12 14:17:54;;;;;;;38.65;20.70;;;;;;;;;;5041881;28;20033;-86
2023/10/12 14:20:26;;;;;;;24.90;18.25;;;;;;;;;;5056303;28;20033;-84
2023/10/12 14:23:05;;;;;;;28.77;17.60;;;;;;;;;;5044351;28;20033;-85
2023/10/12 14:25:37;;;;;;;27.83;17.15;;;;;;;;;;5035933;28;20055;-85
2023/10/12 14:28:05;;;;;;;30.42;19.02;;;;;;;;;;5052435;28;20044;-86
2023/10/12 14:30:32;;;;;;;32.85;19.63;;;;;;;;;;5035446;28;20036;-86
2023/10/12 14:33:02;;;;;;;31.58;18.35;;;;;;;;;;5053023;28;20115;-87
2023/10/12 14:35:29;;;;;;;30.25;17.15;;;;;;;;;;5057990;28;20382;-86
2023/10/12 14:37:55;;;;;;;27.88;19.35;;;;;;;;;;5027824;28;20404;-87
2023/10/12 14:40:21;;;;;;;;;;;;;;;;;;5017045;28;20057;-86
2023/10/12 14:42:47;;;;;;;27.63;17.80;;;;;;;;;;5032594;28;20291;-85
2023/10/12 14:45:16;;;;;;;;;;;;;;;;;;5016797;28;20399;-86
2023/10/12 14:47:44;;;;;;;25.27;17.48;;;;;;;;;;5033233;28;19913;-86
2023/10/12 14:50:16;;;;;;;29.00;17.90;;;;;;;;;;5033256;28;20033;-85
2023/10/12 14:52:45;;;;;;;26.85;17.52;;;;;;;;;;5033054;28;20171;-86
2023/10/12 14:55:11;;;;;;;30.10;19.52;;;;;;;;;;5034192;28;20036;-84
2023/10/12 14:57:39;;;;;;;29.83;19.10;;;;;;;;;;5016873;28;20395;-87
2023/10/12 15:00:10;;;;;;;32.70;20.63;;;;;;;;;;5017070;28;20029;-85
2023/10/12 15:02:38;;;;;;;32.78;19.30;;;;;;;;;;5016254;28;20034;-84
2023/10/12 15:05:11;;;;;;;27.15;16.95;;;;;;;;;;5031416;28;20083;-85
2023/10/12 15:07:37;;;;;;;27.83;17.23;;;;;;;;;;5042181;28;20029;-84
2023/10/12 15:10:05;;;;;;;;;;;;;;;;;;5073967;28;20505;-84
2023/10/12 15:12:32;;;;;;;28.75;14.63;;;;;;;;;;5073578;28;19916;-84
2023/10/12 15:15:00;;;;;;;29.20;17.13;;;;;;;;;;5072024;28;20032;-84
2023/10/12 15:17:27;;;;;;;38.53;17.30;;;;;;;;;;5073866;28;20024;-85
2023/10/12 15:19:53;;;;;;;30.40;15.68;;;;;;;;;;5073202;28;20028;-84
2023/10/12 15:22:21;;;;;;;30.67;15.75;;;;;;;;;;5067059;28;20037;-84
2023/10/12 15:24:47;;;;;;;29.60;16.55;;;;;;;;;;5051627;28;20116;-84
2023/10/12 15:27:13;;;;;;;29.08;14.82;;;;;;;;;;5051890;28;20021;-84
2023/10/12 15:29:39;;;;;;;28.00;13.57;;;;;;;;;;5052031;28;20029;-84
2023/10/12 15:32:06;;;;;;;20.45;14.10;;;;;;;;;;5051763;28;20036;-84
2023/10/12 15:34:32;;;;;;;20.95;13.48;;;;;;;;;;5051358;28;20033;-84
2023/10/12 15:37:01;;;;;;;22.30;13.35;;;;;;;;;;5052726;28;20025;-84
2023/10/12 15:39:32;;;;;;;28.95;15.07;;;;;;;;;;5051511;28;20039;-84
2023/10/12 15:41:58;;;;;;;22.70;12.77;;;;;;;;;;5052825;28;20032;-84
2023/10/12 15:44:24;;;;;;;;;;;;;;;;;;5052873;28;20056;-85
2023/10/12 15:46:50;;;;;;;32.10;17.05;;;;;;;;;;5060307;28;19939;-86
2023/10/12 15:49:16;;;;;;;24.38;15.85;;;;;;;;;;5052726;28;20384;-85
2023/10/12 15:51:43;;;;;;;101.15;63.00;;;;;;;;;;5071499;28;20032;-85
2023/10/12 15:54:11;;;;;;;28.08;16.42;;;;;;;;;;5051671;28;20525;-86
2023/10/12 15:56:38;;;;;;;135.60;93.22;;;;;;;;;;5071158;28;20548;-85
2023/10/12 15:59:04;;;;;;;91.00;61.97;;;;;;;;;;5054561;28;20024;-85
2023/10/12 16:01:34;;;;;;;44.72;29.00;;;;;;;;;;5073928;28;20028;-86
2023/10/12 16:04:02;;;;;;;47.75;32.40;;;;;;;;;;5071003;28;20402;-86
2023/10/12 16:06:29;;;;;;;45.50;24.50;;;;;;;;;;5068333;28;20020;-87
2023/10/12 16:08:56;;;;;;;51.25;30.92;;;;;;;;;;5052230;28;20029;-86
2023/10/12 16:11:22;;;;;;;81.38;52.08;;;;;;;;;;5063320;28;20036;-90
2023/10/12 16:13:48;;;;;;;96.13;56.92;;;;;;;;;;5074836;28;20024;-86
2023/10/12 16:16:14;;;;;;;158.65;140.13;;;;;;;;;;5074038;28;20398;-88
2023/10/12 16:18:41;;;;;;;75.30;51.28;;;;;;;;;;5047297;28;20063;-90
2023/10/12 16:21:08;;;;;;;52.78;31.67;;;;;;;;;;5041218;28;20033;-88
2023/10/12 16:23:35;;;;;;;29.10;20.83;;;;;;;;;;5054107;28;20057;-86
2023/10/12 16:26:01;;;;;;;24.88;18.70;;;;;;;;;;5052914;28;20112;-86
2023/10/12 16:28:28;;;;;;;35.83;20.88;;;;;;;;;;5055497;28;20116;-86
2023/10/12 16:30:55;;;;;;;37.03;20.67;;;;;;;;;;5052820;28;20029;-86
2023/10/12 16:33:21;;;;;;;25.88;18.48;;;;;;;;;;5050863;28;20036;-87
2023/10/12 16:35:51;;;;;;;31.30;19.02;;;;;;;;;;5057139;28;20029;-87
2023/10/12 16:38:19;;;;;;;31.77;18.40;;;;;;;;;;5058430;28;20503;-86